King Salmon Airport King Salmon US
ICAO: PAKN
IATA:
Category: Medium
Scheduled Services:

Elevation: 73 ft
TransAlt. 18000 ft.

Airport Communications:
HARMONY:140.1
ATIS:128.8
ANCHORAGE CNTR:124.8
CTAF:121.9
RDO:122.2
GND:121.9
OPS:37.22
PTD:37.22
TWR:118.3

PAKN Zoom In..

If Map Doesn't Load, Click Here

Runways:

(A) RW 12 length 8901 ft width 150 ft
ILS 110.30 / hdg 116

(B) RW 18 length 4018 ft width 100 ft
---- / hdg 180

(C) RW 30 length 8901 ft width 150 ft
---- / hdg 296

(D) RW 36 length 4018 ft width 100 ft
---- / hdg 360

Location; PAKN
Day. 21 / Time. 14.26 Zulu
* Altimeter: 30.02
* Temperature: 09° c. 48.2°f.
* Wind from: 150° Speed 06 kn.
Dewpoint: 08° c.
Visibility: 3 Statute Miles.
Clouds: Overcast 400 ft.
Conditions: Light Rain.Conditions: Mist.

PAKN 211426Z 15006KT 3SM -RA BR OVC004 09/08 A3002 RMK AO2 RAB1359 P0001 T00890083


Wind From 150°
Speed 06 kn.

 
 
jpsmedia.com for Web Design worldairports.se 2018   terms of use